Time;durP1;ratioP1;P1;durP2;ratioP2;P2;SDS_P1;SDS_P2;PMS_P1;PMS_P2;Temp;Humidity;BMP_temperature;BMP_pressure;BME280_temperature;BME280_humidity;BME280_pressure;Samples;Min_cycle;Max_cycle;Signal;HPM_P1;HPM_P2
2023/03/20 00:02:59;;;;;;;55.20;26.48;;;;;;;10.96;99.81;100939.88;8376632;28;20041;-53
2023/03/20 00:07:00;;;;;;;49.58;26.55;;;;;;;10.92;100.00;100941.09;8377924;28;20044;-54
2023/03/20 00:11:00;;;;;;;49.45;25.77;;;;;;;10.88;99.87;100942.38;8390207;28;20576;-54
2023/03/20 00:15:04;;;;;;;45.13;25.00;;;;;;;10.87;98.71;100948.78;8394373;28;20032;-53
2023/03/20 00:19:07;;;;;;;45.53;22.98;;;;;;;10.93;98.20;100950.97;8393869;28;20036;-54
2023/03/20 00:23:08;;;;;;;45.03;22.30;;;;;;;10.89;97.63;100949.47;8393624;28;20044;-57
2023/03/20 00:27:13;;;;;;;41.97;20.83;;;;;;;10.88;97.34;100947.78;8394194;28;20036;-57
2023/03/20 00:31:35;;;;;;;43.25;23.13;;;;;;;10.82;97.90;100958.25;8393193;28;20056;-58
2023/03/20 00:35:36;;;;;;;44.60;22.95;;;;;;;10.82;99.42;100969.06;8357852;28;20051;-58
2023/03/20 00:39:36;;;;;;;45.95;23.08;;;;;;;10.84;97.77;100962.56;8403051;28;20198;-58
2023/03/20 00:43:37;;;;;;;43.75;21.23;;;;;;;10.88;97.27;100971.25;8393462;28;20044;-59
2023/03/20 00:47:40;;;;;;;39.90;20.17;;;;;;;10.82;97.38;100978.06;8393245;28;20173;-57
2023/03/20 00:51:41;;;;;;;42.33;20.73;;;;;;;10.81;97.55;100976.34;8392238;28;20041;-58
2023/03/20 00:55:41;;;;;;;42.50;21.02;;;;;;;10.71;98.53;100971.84;8392847;28;20051;-58
2023/03/20 00:59:54;;;;;;;35.00;18.90;;;;;;;10.72;98.09;100990.66;8391185;28;20044;-58
2023/03/20 01:03:55;;;;;;;38.58;19.02;;;;;;;10.72;98.37;100979.84;8391838;28;20495;-58
2023/03/20 01:07:55;;;;;;;33.92;17.75;;;;;;;10.61;98.68;100977.16;8388200;28;20526;-59
2023/03/20 01:11:58;;;;;;;31.80;18.85;;;;;;;10.74;97.50;100967.03;8359421;28;20068;-58
2023/03/20 01:15:58;;;;;;;36.63;18.17;;;;;;;10.65;98.45;100973.25;8358614;28;20043;-58
2023/03/20 01:19:58;;;;;;;36.90;19.05;;;;;;;10.60;98.71;100970.06;8359135;28;20151;-58
2023/03/20 01:23:59;;;;;;;38.78;17.27;;;;;;;10.46;98.58;100966.81;8358390;28;20123;-58
2023/03/20 01:28:00;;;;;;;34.45;17.05;;;;;;;10.41;98.00;100956.38;8358332;28;20045;-59
2023/03/20 01:32:01;;;;;;;31.42;16.92;;;;;;;10.51;96.82;100960.03;8365056;28;20616;-58
2023/03/20 01:36:03;;;;;;;33.80;16.13;;;;;;;10.57;95.71;100950.53;8391640;28;20040;-59
2023/03/20 01:40:15;;;;;;;32.88;16.00;;;;;;;10.66;94.87;100945.19;8392009;28;20036;-58
2023/03/20 01:44:21;;;;;;;39.78;18.30;;;;;;;10.65;94.39;100940.78;8391574;28;20029;-58
2023/03/20 01:48:26;;;;;;;32.40;17.48;;;;;;;10.56;95.35;100930.75;8391407;28;20052;-58
2023/03/20 01:52:26;;;;;;;36.67;18.10;;;;;;;10.47;96.36;100931.53;8387048;28;20047;-59
2023/03/20 01:56:30;;;;;;;33.17;16.90;;;;;;;10.31;98.26;100935.66;8389282;28;20040;-60
2023/03/20 02:00:33;;;;;;;39.35;17.98;;;;;;;10.24;98.36;100948.81;8390904;28;20035;-58
2023/03/20 02:04:40;;;;;;;40.22;18.90;;;;;;;10.17;99.15;100954.84;8391053;28;20124;-58
2023/03/20 02:08:47;;;;;;;35.67;19.77;;;;;;;10.07;99.68;100954.78;8391369;28;20044;-57
2023/03/20 02:12:48;;;;;;;42.38;19.45;;;;;;;9.97;100.00;100953.75;8391064;28;20261;-58
2023/03/20 02:16:56;;;;;;;41.92;19.17;;;;;;;9.94;99.84;100964.81;8391377;28;20086;-58
2023/03/20 02:21:43;;;;;;;38.45;18.80;;;;;;;9.95;99.58;100966.56;8390720;28;20032;-58
2023/03/20 02:26:25;;;;;;;42.97;19.00;;;;;;;9.93;99.11;100957.72;8390581;28;20037;-58
2023/03/20 02:30:58;;;;;;;37.65;17.17;;;;;;;9.91;98.49;100943.47;8389602;28;20051;-54
2023/03/20 02:35:33;;;;;;;42.72;18.35;;;;;;;9.81;98.68;100942.50;8390464;28;20403;-54
2023/03/20 02:40:10;;;;;;;35.05;17.45;;;;;;;9.73;98.94;100950.41;8377565;28;20714;-54
2023/03/20 02:44:42;;;;;;;36.65;16.67;;;;;;;9.64;100.00;100935.78;8364470;28;20315;-54
2023/03/20 02:49:23;;;;;;;38.65;17.45;;;;;;;9.46;100.00;100923.78;8390380;28;20545;-53
2023/03/20 02:53:37;;;;;;;43.47;17.90;;;;;;;9.50;100.00;100948.69;8388259;28;20040;-53
2023/03/20 02:57:47;;;;;;;40.33;18.50;;;;;;;9.51;100.00;100936.88;8390141;28;20097;-55
2023/03/20 03:01:58;;;;;;;33.08;16.90;;;;;;;9.52;100.00;100962.91;8393923;28;20282;-54
2023/03/20 03:06:05;;;;;;;42.90;17.00;;;;;;;9.57;100.00;100950.75;8396128;28;20063;-54
2023/03/20 03:10:20;;;;;;;34.85;16.60;;;;;;;9.58;100.00;100951.63;8395794;28;20047;-52
2023/03/20 03:14:40;;;;;;;37.58;16.92;;;;;;;9.52;100.00;100962.91;8395911;28;20051;-59
2023/03/20 03:18:46;;;;;;;35.28;15.85;;;;;;;9.58;100.00;100962.44;8395239;28;20048;-58
2023/03/20 03:22:47;;;;;;;34.45;16.33;;;;;;;9.58;100.00;100959.72;8395669;28;20131;-60
2023/03/20 03:26:48;;;;;;;37.45;16.92;;;;;;;9.56;100.00;100961.69;8395652;28;20044;-59
2023/03/20 03:30:52;;;;;;;31.40;14.45;;;;;;;9.52;100.00;100933.22;8410557;28;20033;-59
2023/03/20 03:34:56;;;;;;;38.65;17.25;;;;;;;9.42;100.00;100934.94;8395803;28;20045;-59
2023/03/20 03:39:21;;;;;;;36.40;16.88;;;;;;;9.34;100.00;100943.63;8395027;28;20095;-59
2023/03/20 03:43:33;;;;;;;38.25;16.02;;;;;;;9.33;100.00;100962.69;8394461;28;20035;-59
2023/03/20 03:47:40;;;;;;;35.63;16.55;;;;;;;9.26;100.00;100972.22;8395210;28;20052;-59
2023/03/20 03:51:44;;;;;;;36.22;15.88;;;;;;;9.17;100.00;100978.34;8385443;28;20507;-59
2023/03/20 03:55:51;;;;;;;33.72;15.60;;;;;;;9.05;100.00;100987.38;8388546;28;20037;-53
2023/03/20 03:59:53;;;;;;;37.85;16.90;;;;;;;8.96;100.00;100993.50;8392324;28;20036;-60
2023/03/20 04:03:59;;;;;;;30.60;15.93;;;;;;;8.83;100.00;100995.41;8393809;28;20040;-60
2023/03/20 04:08:02;;;;;;;35.95;16.48;;;;;;;8.76;100.00;100975.31;8394115;28;20551;-60
2023/03/20 04:12:03;;;;;;;34.72;15.68;;;;;;;8.80;100.00;100976.78;8391829;28;20089;-60
2023/03/20 04:16:04;;;;;;;34.97;16.20;;;;;;;8.69;100.00;100966.81;8393815;28;20040;-60
2023/03/20 04:20:06;;;;;;;32.03;15.48;;;;;;;8.86;100.00;100979.00;8390954;28;20032;-60
2023/03/20 04:24:07;;;;;;;33.55;15.32;;;;;;;8.73;100.00;100967.47;8391376;28;20048;-60
2023/03/20 04:28:08;;;;;;;36.22;16.20;;;;;;;8.59;100.00;100954.16;8393020;28;20039;-56
2023/03/20 04:32:28;;;;;;;34.25;16.90;;;;;;;8.62;100.00;100953.94;8391728;28;20056;-60
2023/03/20 04:36:43;;;;;;;44.28;19.80;;;;;;;8.79;100.00;100957.06;8368912;28;20048;-60
2023/03/20 04:40:46;;;;;;;35.50;16.67;;;;;;;8.75;100.00;100971.75;8417813;28;20039;-59
2023/03/20 04:44:47;;;;;;;34.05;16.35;;;;;;;8.61;100.00;100958.50;8426931;28;20040;-60
2023/03/20 04:48:48;;;;;;;35.97;16.70;;;;;;;8.54;100.00;100951.81;8425329;28;20047;-60
2023/03/20 04:52:50;;;;;;;38.75;16.75;;;;;;;8.70;100.00;100956.91;8404989;28;20041;-60
2023/03/20 04:56:50;;;;;;;35.67;16.60;;;;;;;8.56;100.00;100959.78;8365332;28;20498;-60
2023/03/20 05:00:53;;;;;;;41.97;17.98;;;;;;;8.54;100.00;100956.38;8359355;28;20047;-60
2023/03/20 05:04:55;;;;;;;41.05;17.80;;;;;;;8.62;100.00;100945.84;8372552;28;20071;-54
2023/03/20 05:08:57;;;;;;;37.15;16.50;;;;;;;8.48;100.00;100952.28;8403984;28;20036;-55
2023/03/20 05:12:58;;;;;;;36.47;17.52;;;;;;;8.43;100.00;100948.25;8372228;28;20048;-54
2023/03/20 05:17:09;;;;;;;35.90;16.73;;;;;;;8.06;100.00;100944.75;8372030;28;20473;-55
2023/03/20 05:21:30;;;;;;;40.38;17.88;;;;;;;8.06;100.00;100940.19;8369616;28;20852;-54
2023/03/20 05:25:45;;;;;;;39.67;17.75;;;;;;;7.95;100.00;100937.47;8355721;28;20040;-53
2023/03/20 05:29:57;;;;;;;38.13;18.30;;;;;;;8.04;100.00;100947.56;8372636;28;20079;-53
2023/03/20 05:34:10;;;;;;;40.13;18.63;;;;;;;7.91;100.00;100944.06;8370624;28;20048;-54
2023/03/20 05:38:28;;;;;;;38.17;18.15;;;;;;;8.00;100.00;100946.03;8371875;28;20075;-54
2023/03/20 05:42:44;;;;;;;44.00;18.77;;;;;;;8.11;100.00;100947.09;8370698;28;20036;-60
2023/03/20 05:47:05;;;;;;;38.35;18.45;;;;;;;8.28;100.00;100944.00;8371593;28;20037;-54
2023/03/20 05:51:26;;;;;;;43.25;19.60;;;;;;;8.37;100.00;100948.69;8370814;28;20522;-54
2023/03/20 05:55:31;;;;;;;40.30;19.23;;;;;;;8.51;100.00;100940.44;8371477;28;20102;-55
2023/03/20 05:59:47;;;;;;;43.72;20.10;;;;;;;8.47;100.00;100939.81;8361886;28;20044;-54
2023/03/20 06:04:07;;;;;;;38.88;19.27;;;;;;;8.41;100.00;100950.19;8361296;28;20146;-56
2023/03/20 06:08:29;;;;;;;37.13;18.50;;;;;;;8.36;100.00;100953.25;8362516;28;20048;-54
2023/03/20 06:12:32;;;;;;;38.00;18.25;;;;;;;8.47;100.00;100965.88;8370508;28;20037;-55
2023/03/20 06:16:34;;;;;;;43.95;18.75;;;;;;;8.61;100.00;100961.19;8373186;28;20571;-54
2023/03/20 06:20:34;;;;;;;37.30;18.10;;;;;;;8.60;100.00;100966.69;8361550;28;20472;-54
2023/03/20 06:24:37;;;;;;;43.15;19.00;;;;;;;8.60;100.00;100955.91;8356978;28;20049;-56
2023/03/20 06:28:39;;;;;;;39.47;19.60;;;;;;;8.60;100.00;100958.59;8370728;28;20041;-58
2023/03/20 06:32:42;;;;;;;42.30;19.42;;;;;;;8.71;100.00;100958.63;8354948;28;20098;-58
2023/03/20 06:36:45;;;;;;;40.67;18.55;;;;;;;8.99;100.00;100944.72;8370603;28;20052;-52
2023/03/20 06:40:52;;;;;;;35.05;16.23;;;;;;;9.43;100.00;100952.88;8371490;28;20064;-54
2023/03/20 06:44:53;;;;;;;37.20;19.05;;;;;;;9.34;100.00;100954.44;8356067;28;20044;-52
2023/03/20 06:49:12;;;;;;;37.25;17.77;;;;;;;9.38;100.00;100957.75;8338523;28;20037;-53
2023/03/20 06:53:13;;;;;;;30.90;16.90;;;;;;;9.40;99.85;100963.91;8391125;28;20090;-53
2023/03/20 06:57:18;;;;;;;31.15;15.63;;;;;;;9.49;99.05;100964.00;8373022;28;20385;-54
2023/03/20 07:01:19;;;;;;;29.17;15.20;;;;;;;9.56;97.53;100980.56;8369522;28;20166;-53
2023/03/20 07:05:20;;;;;;;30.92;14.40;;;;;;;9.64;97.01;100978.13;8369898;28;20075;-54
2023/03/20 07:09:22;;;;;;;26.73;13.90;;;;;;;9.86;95.14;100989.75;8366204;28;20116;-54
2023/03/20 07:13:22;;;;;;;27.42;13.73;;;;;;;10.09;94.32;100990.59;8373463;28;20304;-54
2023/03/20 07:17:24;;;;;;;25.02;12.82;;;;;;;10.21;93.17;101011.22;8374222;28;20033;-54
2023/03/20 07:21:25;;;;;;;19.17;11.23;;;;;;;10.14;92.94;101010.00;8372900;28;20033;-53
2023/03/20 07:25:27;;;;;;;21.85;11.00;;;;;;;9.99;92.69;101016.63;8374135;28;20033;-54
2023/03/20 07:29:29;;;;;;;25.63;9.73;;;;;;;10.04;92.44;101022.53;8374766;28;20124;-52
2023/03/20 07:33:31;;;;;;;15.93;7.75;;;;;;;10.03;91.41;101023.50;8373899;28;20127;-53
2023/03/20 07:37:32;;;;;;;14.73;7.88;;;;;;;10.07;91.39;101029.56;8372231;28;20123;-51
2023/03/20 07:41:36;;;;;;;12.95;6.85;;;;;;;10.11;90.42;101031.88;8359800;28;20052;-54
2023/03/20 07:45:40;;;;;;;13.93;7.80;;;;;;;10.20;90.37;101041.06;8389862;28;20544;-54
2023/03/20 07:49:40;;;;;;;12.00;7.20;;;;;;;10.19;89.16;101032.13;8352588;28;20065;-53
2023/03/20 07:53:42;;;;;;;13.43;6.95;;;;;;;10.19;89.85;101040.22;8380806;28;20076;-53
2023/03/20 07:57:44;;;;;;;12.80;6.03;;;;;;;10.29;88.30;101046.59;8369316;28;20044;-53
2023/03/20 08:01:45;;;;;;;10.95;5.68;;;;;;;10.36;87.19;101042.38;8361078;28;20573;-52
2023/03/20 08:05:46;;;;;;;10.20;5.47;;;;;;;10.44;86.35;101037.22;8364185;28;20386;-54
2023/03/20 08:09:46;;;;;;;11.90;5.95;;;;;;;10.50;86.08;101050.22;8350088;28;20483;-53
2023/03/20 08:13:47;;;;;;;11.68;6.57;;;;;;;10.56;86.33;101047.00;8355254;28;20076;-53
2023/03/20 08:17:47;;;;;;;12.85;6.78;;;;;;;10.60;84.57;101045.75;8352002;28;20064;-53
2023/03/20 08:21:48;;;;;;;17.55;7.22;;;;;;;10.67;84.69;101052.38;8351069;28;20044;-54
2023/03/20 08:25:51;;;;;;;17.45;6.90;;;;;;;10.69;84.66;101050.41;8352901;28;20040;-53
2023/03/20 08:29:52;;;;;;;15.27;6.97;;;;;;;10.75;84.15;101049.03;8352794;28;20040;-53
2023/03/20 08:33:54;;;;;;;14.93;7.10;;;;;;;10.80;83.84;101055.75;8350529;28;20178;-54
2023/03/20 08:37:55;;;;;;;19.45;7.47;;;;;;;10.79;83.68;101043.22;8354106;28;20442;-53
2023/03/20 08:41:55;;;;;;;13.38;7.30;;;;;;;10.90;82.93;101059.41;8400068;28;20036;-53
2023/03/20 08:45:56;;;;;;;14.63;7.70;;;;;;;10.94;82.41;101055.47;8365791;28;20120;-54
2023/03/20 08:49:57;;;;;;;19.17;8.75;;;;;;;10.94;82.75;101058.16;8350252;28;20045;-52
2023/03/20 08:53:57;;;;;;;24.20;10.27;;;;;;;11.07;82.99;101056.13;8348800;28;20057;-53
2023/03/20 08:57:58;;;;;;;23.52;9.77;;;;;;;11.31;80.67;101056.75;8354496;28;20037;-53
2023/03/20 09:01:59;;;;;;;20.60;10.95;;;;;;;11.58;79.63;101051.63;8371424;28;20047;-54
2023/03/20 09:05:59;;;;;;;21.85;10.57;;;;;;;12.05;78.52;101055.63;8360120;28;20033;-54
2023/03/20 09:10:00;;;;;;;19.20;10.10;;;;;;;12.24;77.64;101052.09;8366787;28;20384;-54
2023/03/20 09:14:00;;;;;;;22.85;10.35;;;;;;;11.90;76.39;101044.25;8368105;28;20049;-54
2023/03/20 09:18:01;;;;;;;24.08;10.10;;;;;;;11.57;78.03;101065.31;8362503;28;20055;-54
2023/03/20 09:22:01;;;;;;;22.88;10.35;;;;;;;11.32;79.10;101065.72;8354151;28;20099;-53
2023/03/20 09:26:02;;;;;;;19.10;9.68;;;;;;;11.37;79.75;101058.03;8391487;28;20036;-53
2023/03/20 09:30:04;;;;;;;17.77;9.65;;;;;;;11.50;79.19;101062.28;8419110;28;20220;-52
2023/03/20 09:34:05;;;;;;;18.20;8.05;;;;;;;11.49;76.13;101063.28;8404040;28;20139;-52
2023/03/20 09:38:05;;;;;;;15.07;6.55;;;;;;;11.61;75.53;101061.34;8367423;28;20032;-54
2023/03/20 09:42:38;;;;;;;13.32;6.72;;;;;;;11.72;74.34;101059.44;8370172;28;20116;-51
2023/03/20 09:47:18;;;;;;;15.25;4.80;;;;;;;11.84;71.93;101058.34;8369700;28;20044;-55
2023/03/20 09:51:33;;;;;;;14.60;4.97;;;;;;;11.75;71.72;101052.91;8369600;28;20411;-54
2023/03/20 09:55:40;;;;;;;7.82;4.18;;;;;;;11.64;71.52;101063.81;8363157;28;20372;-54
2023/03/20 09:59:41;;;;;;;8.10;4.28;;;;;;;11.67;71.76;101064.41;8363161;28;20128;-53
2023/03/20 10:03:49;;;;;;;9.70;4.70;;;;;;;11.84;71.44;101071.06;8360588;28;20037;-54
2023/03/20 10:07:51;;;;;;;10.70;3.67;;;;;;;11.93;69.65;101068.38;8368223;28;20602;-53
2023/03/20 10:12:09;;;;;;;10.45;3.35;;;;;;;11.98;69.16;101069.84;8339870;28;20075;-53
2023/03/20 10:16:50;;;;;;;9.88;3.90;;;;;;;12.29;69.18;101066.09;8353919;28;20033;-54
2023/03/20 10:21:14;;;;;;;7.00;2.15;;;;;;;12.15;66.42;101061.06;8346804;28;20359;-52
2023/03/20 10:25:27;;;;;;;;;;;;;;;11.88;67.76;101065.25;8377631;28;20039;-53
2023/03/20 10:29:45;;;;;;;11.25;2.53;;;;;;;11.77;68.94;101064.44;8426262;28;19977;-52
2023/03/20 10:33:59;;;;;;;9.13;3.05;;;;;;;11.58;70.21;101067.88;8405184;28;20069;-53
2023/03/20 10:42:18;;;;;;;11.70;3.85;;;;;;;11.46;71.35;101062.66;8408477;27;20393;-52
2023/03/20 10:46:25;;;;;;;9.15;4.00;;;;;;;11.47;71.93;101065.25;8381077;28;20040;-53
2023/03/20 10:50:34;;;;;;;6.07;3.60;;;;;;;11.34;72.61;101059.19;8405516;27;20510;-52
2023/03/20 10:54:41;;;;;;;12.25;4.13;;;;;;;11.33;73.31;101060.19;8392760;27;20040;-52
2023/03/20 10:58:46;;;;;;;12.20;4.25;;;;;;;11.30;73.38;101057.75;8397995;28;20415;-53
2023/03/20 11:02:46;;;;;;;14.93;4.07;;;;;;;11.31;73.40;101064.84;8399495;27;20040;-52
2023/03/20 11:07:16;;;;;;;12.57;4.32;;;;;;;11.36;73.64;101057.22;8397746;27;20039;-52
2023/03/20 11:11:33;;;;;;;9.68;4.32;;;;;;;11.17;72.59;101054.38;8396367;27;20115;-57
2023/03/20 11:15:33;;;;;;;14.63;4.20;;;;;;;11.05;71.46;101052.72;8386279;27;20036;-60
2023/03/20 11:19:36;;;;;;;7.22;3.40;;;;;;;11.09;72.92;101054.16;8373766;27;20071;-57
2023/03/20 11:23:37;;;;;;;8.15;3.42;;;;;;;11.05;73.16;101050.00;8390709;27;20051;-57
2023/03/20 11:27:37;;;;;;;8.25;3.53;;;;;;;11.19;72.33;101033.44;8395309;27;20036;-57
2023/03/20 11:31:40;;;;;;;14.02;4.35;;;;;;;11.40;71.36;101037.00;8402259;27;20403;-55
2023/03/20 11:35:45;;;;;;;7.40;4.05;;;;;;;11.64;71.18;101024.06;8396664;28;20059;-52
2023/03/20 11:39:58;;;;;;;7.35;4.07;;;;;;;11.77;69.61;101021.97;8396506;27;20131;-52
2023/03/20 11:43:58;;;;;;;7.25;3.90;;;;;;;11.69;69.28;101019.06;8396616;27;20123;-59
2023/03/20 11:48:00;;;;;;;11.00;3.75;;;;;;;11.82;70.56;101022.44;8395575;27;20498;-59
2023/03/20 11:52:10;;;;;;;10.07;3.17;;;;;;;11.70;69.68;101012.69;8382013;27;20056;-59
2023/03/20 11:56:13;;;;;;;10.43;2.75;;;;;;;11.57;71.28;101012.03;8387489;28;20096;-58
2023/03/20 12:00:21;;;;;;;4.40;2.20;;;;;;;11.28;72.93;101016.41;8380119;28;20430;-52
2023/03/20 12:04:33;;;;;;;8.30;2.58;;;;;;;11.42;74.86;101018.78;8358098;28;20430;-52
2023/03/20 12:08:38;;;;;;;11.23;2.63;;;;;;;11.30;75.82;101009.00;8371480;28;20495;-53
2023/03/20 12:13:01;;;;;;;7.00;2.85;;;;;;;11.31;75.61;100989.06;8390608;28;20041;-50
2023/03/20 12:17:19;;;;;;;9.40;3.60;;;;;;;11.57;76.66;100995.78;8413396;28;20123;-53
2023/03/20 12:21:29;;;;;;;7.65;4.13;;;;;;;11.59;77.97;100993.75;8355420;28;20048;-53
2023/03/20 12:25:40;;;;;;;8.73;2.72;;;;;;;11.77;77.20;100997.59;8372268;28;20059;-59
2023/03/20 12:29:55;;;;;;;8.07;2.30;;;;;;;11.79;76.46;100990.19;8378744;28;20534;-58
2023/03/20 12:34:04;;;;;;;6.68;1.90;;;;;;;11.93;76.09;100979.97;8391018;28;20033;-59
2023/03/20 12:38:22;;;;;;;4.68;1.73;;;;;;;12.03;77.21;100967.28;8363835;28;20183;-59
2023/03/20 12:42:51;;;;;;;2.80;1.40;;;;;;;11.99;75.34;100963.16;8356721;28;20116;-52
2023/03/20 12:47:17;;;;;;;6.03;1.63;;;;;;;12.12;74.59;100959.19;8385087;28;20048;-52
2023/03/20 12:51:29;;;;;;;5.75;1.55;;;;;;;12.10;72.58;100960.34;8372992;28;20043;-53
2023/03/20 12:55:44;;;;;;;7.20;1.40;;;;;;;12.27;72.91;100940.66;8373526;28;20045;-51
2023/03/20 13:00:10;;;;;;;5.82;1.52;;;;;;;12.54;73.96;100938.13;8369124;28;20538;-52
2023/03/20 13:04:39;;;;;;;6.07;1.67;;;;;;;12.56;72.41;100941.56;8355107;28;20114;-52
2023/03/20 13:08:56;;;;;;;6.65;1.55;;;;;;;12.36;71.77;100928.97;8364764;28;20090;-52
2023/03/20 13:13:26;;;;;;;5.53;1.63;;;;;;;12.51;73.68;100933.84;8373167;28;20085;-52
2023/03/20 13:22:09;;;;;;;8.48;2.17;;;;;;;12.69;70.83;100926.66;8334369;27;20389;-51
2023/03/20 13:26:49;;;;;;;8.82;2.30;;;;;;;12.81;71.68;100924.69;8337270;28;20034;-52
2023/03/20 13:31:03;;;;;;;5.82;1.63;;;;;;;12.82;71.18;100920.94;8347320;28;20179;-52
2023/03/20 13:35:16;;;;;;;4.03;1.70;;;;;;;12.90;70.35;100912.97;8349228;28;20037;-52
2023/03/20 13:39:24;;;;;;;9.87;2.20;;;;;;;13.02;70.06;100917.25;8346189;28;20041;-52
2023/03/20 13:43:36;;;;;;;9.25;2.40;;;;;;;12.82;70.41;100915.53;8329156;28;20040;-53
2023/03/20 13:47:37;;;;;;;8.27;2.20;;;;;;;13.06;71.87;100914.09;8338013;28;20037;-52
2023/03/20 13:51:55;;;;;;;7.43;2.20;;;;;;;13.28;71.23;100921.03;8339200;28;20669;-54
2023/03/20 13:56:11;;;;;;;8.05;2.40;;;;;;;13.42;70.35;100912.41;8347207;28;20037;-52
2023/03/20 14:00:45;;;;;;;10.73;2.10;;;;;;;13.50;70.53;100912.50;8347943;28;20052;-54
2023/03/20 14:04:50;;;;;;;7.47;1.88;;;;;;;13.52;69.06;100897.78;8349082;28;20041;-53
2023/03/20 14:08:53;;;;;;;7.53;1.80;;;;;;;13.37;69.08;100895.69;8351597;28;20047;-53
2023/03/20 14:13:00;;;;;;;8.93;2.08;;;;;;;13.59;70.22;100906.16;8349899;28;20128;-53
2023/03/20 14:17:16;;;;;;;7.70;2.05;;;;;;;13.68;69.36;100902.53;8352513;28;20116;-54
2023/03/20 14:21:22;;;;;;;7.80;2.42;;;;;;;13.62;68.68;100895.00;8341625;28;20380;-54
2023/03/20 14:25:25;;;;;;;10.43;3.08;;;;;;;13.44;69.09;100897.66;8349755;28;20037;-55
2023/03/20 14:29:33;;;;;;;6.63;1.98;;;;;;;13.45;68.89;100893.09;8347898;28;20041;-54
2023/03/20 14:33:42;;;;;;;9.85;2.25;;;;;;;13.46;69.58;100881.22;8337132;28;20123;-55
2023/03/20 14:38:23;;;;;;;7.38;2.33;;;;;;;13.48;69.44;100890.09;8328692;28;20056;-53
2023/03/20 14:47:16;;;;;;;11.95;2.80;;;;;;;13.44;68.28;100869.63;8389279;27;20383;-52
2023/03/20 14:55:45;;;;;;;8.70;2.30;;;;;;;13.43;70.13;100867.94;8396114;27;20369;-53
2023/03/20 14:59:48;;;;;;;6.68;2.40;;;;;;;13.43;70.42;100859.78;8351636;28;20045;-53
2023/03/20 15:03:56;;;;;;;8.02;2.10;;;;;;;13.28;69.80;100875.72;8386838;28;20043;-53
2023/03/20 15:08:02;;;;;;;11.07;2.30;;;;;;;13.37;68.15;100863.97;8386977;28;20499;-54
2023/03/20 15:12:03;;;;;;;7.10;2.60;;;;;;;13.49;69.24;100859.19;8387071;28;20032;-53
2023/03/20 15:16:10;;;;;;;9.90;2.45;;;;;;;13.61;68.83;100863.41;8384666;28;20495;-54
2023/03/20 15:20:30;;;;;;;10.93;2.92;;;;;;;13.49;69.03;100862.75;8385829;28;20510;-53
2023/03/20 15:24:31;;;;;;;16.63;3.00;;;;;;;13.32;69.27;100849.97;8384414;28;20045;-55
2023/03/20 15:28:36;;;;;;;9.75;3.53;;;;;;;13.32;69.95;100851.81;8380730;28;20109;-54
2023/03/20 15:32:36;;;;;;;13.77;4.15;;;;;;;13.36;70.66;100843.22;8376631;28;20041;-54
2023/03/20 15:36:38;;;;;;;13.95;3.72;;;;;;;13.45;69.83;100844.19;8378105;28;20060;-54
2023/03/20 15:40:39;;;;;;;12.02;3.78;;;;;;;13.40;69.25;100832.94;8381025;28;20040;-55
2023/03/20 15:44:43;;;;;;;12.07;4.10;;;;;;;13.53;69.11;100836.13;8381541;28;20033;-54
2023/03/20 15:48:47;;;;;;;10.30;2.70;;;;;;;13.51;69.63;100835.44;8376097;28;20060;-54
2023/03/20 15:52:52;;;;;;;9.48;3.05;;;;;;;13.49;68.32;100840.16;8375076;28;20415;-54
2023/03/20 15:56:56;;;;;;;7.30;2.00;;;;;;;13.54;66.90;100833.25;8378077;28;20417;-53
2023/03/20 16:00:59;;;;;;;8.60;1.65;;;;;;;13.42;66.53;100822.78;8367651;28;20396;-55
2023/03/20 16:05:00;;;;;;;5.72;2.30;;;;;;;13.34;68.02;100811.81;8366207;28;20044;-55
2023/03/20 16:09:05;;;;;;;8.57;2.05;;;;;;;13.23;69.32;100812.00;8361477;28;20077;-56
2023/03/20 16:13:12;;;;;;;12.23;2.55;;;;;;;13.23;70.53;100817.41;8353157;28;20045;-53
2023/03/20 16:17:15;;;;;;;6.28;2.13;;;;;;;13.04;74.50;100810.22;8349734;28;20451;-55
2023/03/20 16:25:29;;;;;;;11.68;3.00;;;;;;;12.59;74.54;100816.50;8348271;27;21132;-54
2023/03/20 16:29:29;;;;;;;9.88;2.10;;;;;;;12.58;76.20;100814.75;8320105;28;20038;-54
2023/03/20 16:33:30;;;;;;;16.85;3.97;;;;;;;12.60;73.73;100810.06;8318965;28;20834;-54
2023/03/20 16:37:40;;;;;;;8.45;3.30;;;;;;;12.67;75.31;100819.31;8305629;28;20045;-55
2023/03/20 16:41:40;;;;;;;11.82;2.75;;;;;;;12.72;74.09;100811.59;8310662;28;20054;-55
2023/03/20 16:45:45;;;;;;;7.20;2.28;;;;;;;12.73;74.84;100813.31;8304626;28;20045;-55
2023/03/20 16:50:03;;;;;;;7.10;2.00;;;;;;;12.78;74.66;100819.16;8310830;28;20053;-55
2023/03/20 16:54:04;;;;;;;5.85;1.88;;;;;;;12.73;72.90;100824.16;8305599;28;20037;-54
2023/03/20 16:58:06;;;;;;;8.18;2.25;;;;;;;12.76;76.01;100823.88;8314678;28;20129;-55
2023/03/20 17:02:27;;;;;;;6.07;2.33;;;;;;;12.52;79.69;100815.34;8312760;28;20053;-54
2023/03/20 17:06:34;;;;;;;6.10;2.10;;;;;;;12.36;79.08;100817.81;8294989;28;20404;-54
2023/03/20 17:10:36;;;;;;;9.43;2.70;;;;;;;12.34;77.90;100822.50;8294934;28;20045;-54
2023/03/20 17:14:36;;;;;;;11.82;2.20;;;;;;;12.30;79.20;100815.66;8312232;28;20458;-54
2023/03/20 17:18:37;;;;;;;7.95;2.72;;;;;;;12.26;78.09;100819.69;8308167;28;20335;-54
2023/03/20 17:22:37;;;;;;;11.23;2.67;;;;;;;12.16;80.74;100821.50;8292719;28;20045;-54
2023/03/20 17:26:41;;;;;;;10.70;2.67;;;;;;;12.06;83.30;100817.97;8309519;28;20087;-54
2023/03/20 17:30:41;;;;;;;6.45;2.25;;;;;;;12.08;81.16;100824.09;8332979;28;20509;-59
2023/03/20 17:34:42;;;;;;;8.07;2.42;;;;;;;12.06;80.88;100831.50;8321190;28;20124;-59
2023/03/20 17:38:43;;;;;;;21.23;9.20;;;;;;;12.01;82.71;100831.09;8327277;28;20051;-58
2023/03/20 17:42:43;;;;;;;7.65;2.60;;;;;;;12.00;79.98;100834.78;8280353;28;20096;-60
2023/03/20 17:46:44;;;;;;;9.02;2.80;;;;;;;11.79;82.30;100834.91;8264706;28;20050;-62
2023/03/20 17:50:49;;;;;;;8.50;3.40;;;;;;;11.74;80.90;100835.34;8274029;28;20053;-62
2023/03/20 17:54:50;;;;;;;9.90;2.83;;;;;;;11.78;78.73;100842.19;8272601;28;20073;-60
2023/03/20 17:58:50;;;;;;;10.63;2.60;;;;;;;11.72;82.42;100848.16;8280831;28;20044;-60
2023/03/20 18:02:51;;;;;;;7.13;1.98;;;;;;;11.69;81.61;100837.59;8285785;28;20046;-60
2023/03/20 18:06:51;;;;;;;5.93;1.75;;;;;;;11.77;79.43;100843.19;8256227;28;20073;-60
2023/03/20 18:10:53;;;;;;;12.52;3.42;;;;;;;11.77;79.23;100843.19;8306923;28;20061;-60
2023/03/20 18:14:54;;;;;;;11.10;2.85;;;;;;;11.86;79.67;100845.06;8270979;28;20118;-60
2023/03/20 18:18:55;;;;;;;6.75;2.50;;;;;;;11.92;80.15;100837.38;8263059;28;20039;-60
2023/03/20 18:22:55;;;;;;;9.55;2.20;;;;;;;11.88;79.12;100834.94;8275968;28;20055;-60
2023/03/20 18:26:56;;;;;;;10.32;2.10;;;;;;;11.88;78.88;100834.94;8319519;28;20053;-60
2023/03/20 18:30:56;;;;;;;3.58;2.22;;;;;;;11.90;78.68;100840.22;8320087;28;20154;-60
2023/03/20 18:34:57;;;;;;;8.25;2.17;;;;;;;11.81;78.81;100833.78;8320216;28;20045;-60
2023/03/20 18:38:57;;;;;;;4.10;2.40;;;;;;;11.53;80.42;100828.28;8307177;28;20595;-60
2023/03/20 18:42:58;;;;;;;10.07;2.50;;;;;;;11.48;80.68;100828.72;8276436;28;20493;-60
2023/03/20 18:46:58;;;;;;;11.60;5.07;;;;;;;11.36;80.05;100835.22;8254387;28;20496;-55
2023/03/20 18:51:00;;;;;;;16.02;7.28;;;;;;;11.32;80.36;100833.78;8267455;28;20064;-54
2023/03/20 18:55:01;;;;;;;9.88;3.38;;;;;;;11.34;79.10;100834.50;8276733;28;20052;-54
2023/03/20 18:59:05;;;;;;;12.52;3.90;;;;;;;11.45;79.09;100839.81;8302511;28;20048;-55
2023/03/20 19:03:07;;;;;;;9.20;2.40;;;;;;;11.60;78.94;100833.00;8259041;28;20034;-55
2023/03/20 19:07:11;;;;;;;5.78;2.33;;;;;;;11.72;77.95;100833.78;8259887;28;20128;-55
2023/03/20 19:11:14;;;;;;;8.20;2.78;;;;;;;11.72;77.33;100826.50;8284263;28;20046;-55
2023/03/20 19:15:15;;;;;;;5.40;2.10;;;;;;;11.64;78.04;100826.34;8290505;28;20486;-55
2023/03/20 19:19:15;;;;;;;6.75;2.40;;;;;;;11.63;79.86;100830.06;8262808;28;20061;-55